sensor_id;sensor_type;location;lat;lon;timestamp;temperature;humidity
44513;DHT22;30219;50.588;9.504;2022-07-23T00:00:33;20.70;98.20
44513;DHT22;30219;50.588;9.504;2022-07-23T00:02:59;20.60;98.40
44513;DHT22;30219;50.588;9.504;2022-07-23T00:05:24;20.60;98.70
44513;DHT22;30219;50.588;9.504;2022-07-23T00:07:50;20.60;98.80
44513;DHT22;30219;50.588;9.504;2022-07-23T00:10:16;20.60;98.80
44513;DHT22;30219;50.588;9.504;2022-07-23T00:12:41;20.60;99.00
44513;DHT22;30219;50.588;9.504;2022-07-23T00:15:08;20.60;98.90
44513;DHT22;30219;50.588;9.504;2022-07-23T00:17:34;20.60;99.20
44513;DHT22;30219;50.588;9.504;2022-07-23T00:20:00;20.60;99.10
44513;DHT22;30219;50.588;9.504;2022-07-23T00:22:26;20.50;99.50
44513;DHT22;30219;50.588;9.504;2022-07-23T00:24:53;20.40;99.80
44513;DHT22;30219;50.588;9.504;2022-07-23T00:27:18;20.40;99.90
44513;DHT22;30219;50.588;9.504;2022-07-23T00:29:44;20.30;99.90
44513;DHT22;30219;50.588;9.504;2022-07-23T00:32:10;20.30;99.90
44513;DHT22;30219;50.588;9.504;2022-07-23T00:34:35;20.30;99.90
44513;DHT22;30219;50.588;9.504;2022-07-23T00:37:01;20.30;99.90
44513;DHT22;30219;50.588;9.504;2022-07-23T00:39:26;20.30;99.90
44513;DHT22;30219;50.588;9.504;2022-07-23T00:41:53;20.30;99.90
44513;DHT22;30219;50.588;9.504;2022-07-23T00:44:23;20.20;99.90
44513;DHT22;30219;50.588;9.504;2022-07-23T00:46:52;20.10;99.90
44513;DHT22;30219;50.588;9.504;2022-07-23T00:49:20;20.10;99.90
44513;DHT22;30219;50.588;9.504;2022-07-23T00:51:47;20.10;99.90
44513;DHT22;30219;50.588;9.504;2022-07-23T00:54:13;20.10;99.90
44513;DHT22;30219;50.588;9.504;2022-07-23T00:56:39;20.10;99.90
44513;DHT22;30219;50.588;9.504;2022-07-23T00:59:06;20.10;99.90
44513;DHT22;30219;50.588;9.504;2022-07-23T01:01:32;20.10;99.90
44513;DHT22;30219;50.588;9.504;2022-07-23T01:03:58;19.90;99.90
44513;DHT22;30219;50.588;9.504;2022-07-23T01:06:24;19.50;99.90
44513;DHT22;30219;50.588;9.504;2022-07-23T01:08:49;19.30;99.90
44513;DHT22;30219;50.588;9.504;2022-07-23T01:11:15;19.20;99.90
44513;DHT22;30219;50.588;9.504;2022-07-23T01:13:42;19.40;99.90
44513;DHT22;30219;50.588;9.504;2022-07-23T01:16:08;19.30;99.90
44513;DHT22;30219;50.588;9.504;2022-07-23T01:18:34;19.20;99.90
44513;DHT22;30219;50.588;9.504;2022-07-23T01:20:59;19.10;99.90
44513;DHT22;30219;50.588;9.504;2022-07-23T01:23:25;18.90;99.90
44513;DHT22;30219;50.588;9.504;2022-07-23T01:25:54;18.80;99.90
44513;DHT22;30219;50.588;9.504;2022-07-23T01:28:20;18.60;99.90
44513;DHT22;30219;50.588;9.504;2022-07-23T01:30:46;18.50;99.90
44513;DHT22;30219;50.588;9.504;2022-07-23T01:33:12;18.40;99.90
44513;DHT22;30219;50.588;9.504;2022-07-23T01:35:37;18.50;99.90
44513;DHT22;30219;50.588;9.504;2022-07-23T01:38:03;18.50;99.90
44513;DHT22;30219;50.588;9.504;2022-07-23T01:40:28;18.40;99.90
44513;DHT22;30219;50.588;9.504;2022-07-23T01:42:54;18.30;99.90
44513;DHT22;30219;50.588;9.504;2022-07-23T01:45:20;18.20;99.90
44513;DHT22;30219;50.588;9.504;2022-07-23T01:47:46;18.10;99.90
44513;DHT22;30219;50.588;9.504;2022-07-23T01:50:11;18.10;99.90
44513;DHT22;30219;50.588;9.504;2022-07-23T01:52:37;18.00;99.90
44513;DHT22;30219;50.588;9.504;2022-07-23T01:55:03;18.00;99.90
44513;DHT22;30219;50.588;9.504;2022-07-23T01:57:28;17.90;99.90
44513;DHT22;30219;50.588;9.504;2022-07-23T01:59:54;17.80;99.90
44513;DHT22;30219;50.588;9.504;2022-07-23T02:02:20;17.90;99.90
44513;DHT22;30219;50.588;9.504;2022-07-23T02:04:45;18.00;99.90
44513;DHT22;30219;50.588;9.504;2022-07-23T02:07:11;18.10;99.90
44513;DHT22;30219;50.588;9.504;2022-07-23T02:09:36;18.10;99.90
44513;DHT22;30219;50.588;9.504;2022-07-23T02:12:02;18.20;99.90
44513;DHT22;30219;50.588;9.504;2022-07-23T02:14:28;18.20;99.90
44513;DHT22;30219;50.588;9.504;2022-07-23T02:16:54;18.20;99.90
44513;DHT22;30219;50.588;9.504;2022-07-23T02:19:19;18.30;99.90
44513;DHT22;30219;50.588;9.504;2022-07-23T02:21:45;18.40;99.90
44513;DHT22;30219;50.588;9.504;2022-07-23T02:24:11;18.30;99.90
44513;DHT22;30219;50.588;9.504;2022-07-23T02:26:36;18.20;99.90
44513;DHT22;30219;50.588;9.504;2022-07-23T02:29:03;18.40;99.90
44513;DHT22;30219;50.588;9.504;2022-07-23T02:31:30;18.30;99.90
44513;DHT22;30219;50.588;9.504;2022-07-23T02:33:56;18.30;99.90
44513;DHT22;30219;50.588;9.504;2022-07-23T02:36:22;18.20;99.90
44513;DHT22;30219;50.588;9.504;2022-07-23T02:38:48;18.20;99.90
44513;DHT22;30219;50.588;9.504;2022-07-23T02:41:13;18.20;99.90
44513;DHT22;30219;50.588;9.504;2022-07-23T02:43:39;18.30;99.90
44513;DHT22;30219;50.588;9.504;2022-07-23T02:46:05;18.30;99.90
44513;DHT22;30219;50.588;9.504;2022-07-23T02:48:30;18.40;99.90
44513;DHT22;30219;50.588;9.504;2022-07-23T02:50:56;18.50;99.90
44513;DHT22;30219;50.588;9.504;2022-07-23T02:53:22;18.50;99.90
44513;DHT22;30219;50.588;9.504;2022-07-23T02:55:48;18.50;99.90
44513;DHT22;30219;50.588;9.504;2022-07-23T02:58:14;18.30;99.90
44513;DHT22;30219;50.588;9.504;2022-07-23T03:00:40;18.30;99.90
44513;DHT22;30219;50.588;9.504;2022-07-23T03:03:05;18.10;99.90
44513;DHT22;30219;50.588;9.504;2022-07-23T03:05:33;18.10;99.90
44513;DHT22;30219;50.588;9.504;2022-07-23T03:07:58;18.00;99.90
44513;DHT22;30219;50.588;9.504;2022-07-23T03:10:24;18.10;99.90
44513;DHT22;30219;50.588;9.504;2022-07-23T03:12:50;18.00;99.90
44513;DHT22;30219;50.588;9.504;2022-07-23T03:15:15;18.00;99.90
44513;DHT22;30219;50.588;9.504;2022-07-23T03:17:41;18.00;99.90
44513;DHT22;30219;50.588;9.504;2022-07-23T03:20:07;17.90;99.90
44513;DHT22;30219;50.588;9.504;2022-07-23T03:22:33;17.90;99.90
44513;DHT22;30219;50.588;9.504;2022-07-23T03:24:59;17.90;99.90
44513;DHT22;30219;50.588;9.504;2022-07-23T03:27:27;18.10;99.90
44513;DHT22;30219;50.588;9.504;2022-07-23T03:29:55;18.10;99.90
44513;DHT22;30219;50.588;9.504;2022-07-23T03:32:21;18.20;99.90
44513;DHT22;30219;50.588;9.504;2022-07-23T03:34:47;18.10;99.90
44513;DHT22;30219;50.588;9.504;2022-07-23T03:37:13;17.90;99.90
44513;DHT22;30219;50.588;9.504;2022-07-23T03:39:39;18.00;99.90
44513;DHT22;30219;50.588;9.504;2022-07-23T03:42:05;18.10;99.90
44513;DHT22;30219;50.588;9.504;2022-07-23T03:44:31;18.10;99.90
44513;DHT22;30219;50.588;9.504;2022-07-23T03:46:57;18.00;99.90
44513;DHT22;30219;50.588;9.504;2022-07-23T03:49:22;17.90;99.90
44513;DHT22;30219;50.588;9.504;2022-07-23T03:51:48;17.80;99.90
44513;DHT22;30219;50.588;9.504;2022-07-23T03:54:14;17.90;99.90
44513;DHT22;30219;50.588;9.504;2022-07-23T03:56:39;17.80;99.90
44513;DHT22;30219;50.588;9.504;2022-07-23T03:59:05;17.80;99.90
44513;DHT22;30219;50.588;9.504;2022-07-23T04:01:30;17.90;99.90
44513;DHT22;30219;50.588;9.504;2022-07-23T04:03:56;18.00;99.90
44513;DHT22;30219;50.588;9.504;2022-07-23T04:06:22;18.00;99.90
44513;DHT22;30219;50.588;9.504;2022-07-23T04:08:47;18.00;99.90
44513;DHT22;30219;50.588;9.504;2022-07-23T04:11:13;18.20;99.90
44513;DHT22;30219;50.588;9.504;2022-07-23T04:13:39;18.10;99.90
44513;DHT22;30219;50.588;9.504;2022-07-23T04:16:05;18.00;99.90
44513;DHT22;30219;50.588;9.504;2022-07-23T04:18:31;18.10;99.90
44513;DHT22;30219;50.588;9.504;2022-07-23T04:20:57;18.00;99.90
44513;DHT22;30219;50.588;9.504;2022-07-23T04:23:22;18.00;99.90
44513;DHT22;30219;50.588;9.504;2022-07-23T04:25:48;18.00;99.90
44513;DHT22;30219;50.588;9.504;2022-07-23T04:28:13;17.90;99.90
44513;DHT22;30219;50.588;9.504;2022-07-23T04:30:39;17.90;99.90
44513;DHT22;30219;50.588;9.504;2022-07-23T04:33:05;17.80;99.90
44513;DHT22;30219;50.588;9.504;2022-07-23T04:35:36;17.80;99.90
44513;DHT22;30219;50.588;9.504;2022-07-23T04:38:03;17.80;99.90
44513;DHT22;30219;50.588;9.504;2022-07-23T04:40:29;17.90;99.90
44513;DHT22;30219;50.588;9.504;2022-07-23T04:42:57;18.00;99.90
44513;DHT22;30219;50.588;9.504;2022-07-23T04:45:23;18.10;99.90
44513;DHT22;30219;50.588;9.504;2022-07-23T04:47:50;18.10;99.90
44513;DHT22;30219;50.588;9.504;2022-07-23T04:50:15;18.00;99.90
44513;DHT22;30219;50.588;9.504;2022-07-23T04:52:44;18.10;99.90
44513;DHT22;30219;50.588;9.504;2022-07-23T04:55:10;18.30;99.90
44513;DHT22;30219;50.588;9.504;2022-07-23T04:57:36;18.40;99.90
44513;DHT22;30219;50.588;9.504;2022-07-23T05:00:03;18.50;99.90
44513;DHT22;30219;50.588;9.504;2022-07-23T05:02:29;18.60;99.90
44513;DHT22;30219;50.588;9.504;2022-07-23T05:04:55;18.60;99.90
44513;DHT22;30219;50.588;9.504;2022-07-23T05:07:20;18.70;99.90
44513;DHT22;30219;50.588;9.504;2022-07-23T05:09:46;18.90;99.90
44513;DHT22;30219;50.588;9.504;2022-07-23T05:12:11;19.10;99.90
44513;DHT22;30219;50.588;9.504;2022-07-23T05:14:37;19.30;99.90
44513;DHT22;30219;50.588;9.504;2022-07-23T05:17:03;19.30;99.90
44513;DHT22;30219;50.588;9.504;2022-07-23T05:19:28;19.40;99.90
44513;DHT22;30219;50.588;9.504;2022-07-23T05:21:54;19.30;99.90
44513;DHT22;30219;50.588;9.504;2022-07-23T05:24:19;19.30;99.90
44513;DHT22;30219;50.588;9.504;2022-07-23T05:26:45;19.20;99.90
44513;DHT22;30219;50.588;9.504;2022-07-23T05:29:10;19.20;99.90
44513;DHT22;30219;50.588;9.504;2022-07-23T05:31:36;19.40;99.90
44513;DHT22;30219;50.588;9.504;2022-07-23T05:34:02;19.40;99.90
44513;DHT22;30219;50.588;9.504;2022-07-23T05:36:27;19.50;99.90
44513;DHT22;30219;50.588;9.504;2022-07-23T05:38:53;19.60;99.90
44513;DHT22;30219;50.588;9.504;2022-07-23T05:41:18;19.70;99.90
44513;DHT22;30219;50.588;9.504;2022-07-23T05:43:44;19.70;99.90
44513;DHT22;30219;50.588;9.504;2022-07-23T05:46:09;19.70;99.90
44513;DHT22;30219;50.588;9.504;2022-07-23T05:48:35;19.70;99.90
44513;DHT22;30219;50.588;9.504;2022-07-23T05:51:01;19.60;99.90
44513;DHT22;30219;50.588;9.504;2022-07-23T05:53:26;19.50;99.90
44513;DHT22;30219;50.588;9.504;2022-07-23T05:55:52;19.50;99.90
44513;DHT22;30219;50.588;9.504;2022-07-23T05:58:17;19.50;99.90
44513;DHT22;30219;50.588;9.504;2022-07-23T06:00:43;19.50;99.90
44513;DHT22;30219;50.588;9.504;2022-07-23T06:03:09;19.50;99.90
44513;DHT22;30219;50.588;9.504;2022-07-23T06:05:34;19.50;99.90
44513;DHT22;30219;50.588;9.504;2022-07-23T06:08:00;19.50;99.90
44513;DHT22;30219;50.588;9.504;2022-07-23T06:10:25;19.40;99.90
44513;DHT22;30219;50.588;9.504;2022-07-23T06:12:51;19.30;99.90
44513;DHT22;30219;50.588;9.504;2022-07-23T06:15:17;19.30;99.90
44513;DHT22;30219;50.588;9.504;2022-07-23T06:17:42;19.20;99.90
44513;DHT22;30219;50.588;9.504;2022-07-23T06:20:09;19.10;99.90
44513;DHT22;30219;50.588;9.504;2022-07-23T06:22:36;19.20;99.90
44513;DHT22;30219;50.588;9.504;2022-07-23T06:25:02;19.10;99.90
44513;DHT22;30219;50.588;9.504;2022-07-23T06:27:28;19.00;99.90
44513;DHT22;30219;50.588;9.504;2022-07-23T06:29:53;19.20;99.90
44513;DHT22;30219;50.588;9.504;2022-07-23T06:32:19;19.20;99.90
44513;DHT22;30219;50.588;9.504;2022-07-23T06:34:44;19.20;99.90
44513;DHT22;30219;50.588;9.504;2022-07-23T06:37:10;19.10;99.90
44513;DHT22;30219;50.588;9.504;2022-07-23T06:39:37;19.20;99.90
44513;DHT22;30219;50.588;9.504;2022-07-23T06:42:03;19.20;99.90
44513;DHT22;30219;50.588;9.504;2022-07-23T06:44:28;19.10;99.90
44513;DHT22;30219;50.588;9.504;2022-07-23T06:46:54;19.20;99.90
44513;DHT22;30219;50.588;9.504;2022-07-23T06:49:20;19.30;99.90
44513;DHT22;30219;50.588;9.504;2022-07-23T06:51:45;19.40;99.90
44513;DHT22;30219;50.588;9.504;2022-07-23T06:54:11;19.40;99.90
44513;DHT22;30219;50.588;9.504;2022-07-23T06:56:36;19.40;99.90
44513;DHT22;30219;50.588;9.504;2022-07-23T06:59:02;19.40;99.90
44513;DHT22;30219;50.588;9.504;2022-07-23T07:01:28;19.40;99.90
44513;DHT22;30219;50.588;9.504;2022-07-23T07:03:53;19.50;99.90
44513;DHT22;30219;50.588;9.504;2022-07-23T07:06:19;19.40;99.90
44513;DHT22;30219;50.588;9.504;2022-07-23T07:08:45;19.50;99.90
44513;DHT22;30219;50.588;9.504;2022-07-23T07:11:10;19.60;99.90
44513;DHT22;30219;50.588;9.504;2022-07-23T07:13:37;19.50;99.90
44513;DHT22;30219;50.588;9.504;2022-07-23T07:16:03;19.50;99.90
44513;DHT22;30219;50.588;9.504;2022-07-23T07:18:29;19.50;99.90
44513;DHT22;30219;50.588;9.504;2022-07-23T07:20:54;19.50;99.90
44513;DHT22;30219;50.588;9.504;2022-07-23T07:23:20;19.60;99.90
44513;DHT22;30219;50.588;9.504;2022-07-23T07:25:46;19.70;99.90
44513;DHT22;30219;50.588;9.504;2022-07-23T07:28:12;19.70;99.90
44513;DHT22;30219;50.588;9.504;2022-07-23T07:30:37;19.90;99.90
44513;DHT22;30219;50.588;9.504;2022-07-23T07:33:03;19.90;99.90
44513;DHT22;30219;50.588;9.504;2022-07-23T07:35:29;19.80;99.90
44513;DHT22;30219;50.588;9.504;2022-07-23T07:37:54;19.70;99.90
44513;DHT22;30219;50.588;9.504;2022-07-23T07:40:20;19.70;99.90
44513;DHT22;30219;50.588;9.504;2022-07-23T07:42:47;19.90;99.90
44513;DHT22;30219;50.588;9.504;2022-07-23T07:45:13;20.00;99.90
44513;DHT22;30219;50.588;9.504;2022-07-23T07:47:39;20.10;99.90
44513;DHT22;30219;50.588;9.504;2022-07-23T07:50:05;19.90;99.90
44513;DHT22;30219;50.588;9.504;2022-07-23T07:52:30;20.00;99.90
44513;DHT22;30219;50.588;9.504;2022-07-23T07:54:56;20.10;99.90
44513;DHT22;30219;50.588;9.504;2022-07-23T07:57:21;20.10;99.90
44513;DHT22;30219;50.588;9.504;2022-07-23T07:59:47;20.10;99.90
44513;DHT22;30219;50.588;9.504;2022-07-23T08:02:12;20.20;99.90
44513;DHT22;30219;50.588;9.504;2022-07-23T08:04:38;20.40;99.90
44513;DHT22;30219;50.588;9.504;2022-07-23T08:07:03;20.60;99.90
44513;DHT22;30219;50.588;9.504;2022-07-23T08:09:29;20.70;99.90
44513;DHT22;30219;50.588;9.504;2022-07-23T08:11:54;20.90;99.90
44513;DHT22;30219;50.588;9.504;2022-07-23T08:14:20;21.00;99.90
44513;DHT22;30219;50.588;9.504;2022-07-23T08:16:46;21.10;99.90
44513;DHT22;30219;50.588;9.504;2022-07-23T08:19:11;21.00;99.90
44513;DHT22;30219;50.588;9.504;2022-07-23T08:21:37;21.10;99.90
44513;DHT22;30219;50.588;9.504;2022-07-23T08:24:03;21.40;99.90
44513;DHT22;30219;50.588;9.504;2022-07-23T08:26:28;21.90;99.90
44513;DHT22;30219;50.588;9.504;2022-07-23T08:28:54;22.50;99.90
44513;DHT22;30219;50.588;9.504;2022-07-23T08:31:19;22.80;99.90
44513;DHT22;30219;50.588;9.504;2022-07-23T08:33:45;23.00;99.90
44513;DHT22;30219;50.588;9.504;2022-07-23T08:36:11;23.30;99.90
44513;DHT22;30219;50.588;9.504;2022-07-23T08:38:36;23.60;99.90
44513;DHT22;30219;50.588;9.504;2022-07-23T08:41:02;23.70;99.90
44513;DHT22;30219;50.588;9.504;2022-07-23T08:43:31;23.60;99.90
44513;DHT22;30219;50.588;9.504;2022-07-23T08:45:59;23.40;99.90
44513;DHT22;30219;50.588;9.504;2022-07-23T08:48:26;23.30;99.90
44513;DHT22;30219;50.588;9.504;2022-07-23T08:50:57;23.60;99.90
44513;DHT22;30219;50.588;9.504;2022-07-23T08:53:25;24.00;99.90
44513;DHT22;30219;50.588;9.504;2022-07-23T08:55:52;24.30;99.90
44513;DHT22;30219;50.588;9.504;2022-07-23T08:58:19;24.30;99.90
44513;DHT22;30219;50.588;9.504;2022-07-23T09:00:45;24.30;99.90
44513;DHT22;30219;50.588;9.504;2022-07-23T09:03:18;24.80;99.70
44513;DHT22;30219;50.588;9.504;2022-07-23T09:05:44;24.70;99.80
44513;DHT22;30219;50.588;9.504;2022-07-23T09:10:59;25.50;98.40
44513;DHT22;30219;50.588;9.504;2022-07-23T09:16:01;26.00;97.30
44513;DHT22;30219;50.588;9.504;2022-07-23T09:18:39;26.20;97.50
44513;DHT22;30219;50.588;9.504;2022-07-23T09:21:21;25.90;97.20
44513;DHT22;30219;50.588;9.504;2022-07-23T09:23:54;25.60;98.20
44513;DHT22;30219;50.588;9.504;2022-07-23T09:26:25;25.40;97.50
44513;DHT22;30219;50.588;9.504;2022-07-23T09:31:55;25.50;98.00
44513;DHT22;30219;50.588;9.504;2022-07-23T09:34:28;26.40;96.50
44513;DHT22;30219;50.588;9.504;2022-07-23T09:36:57;26.40;95.70
44513;DHT22;30219;50.588;9.504;2022-07-23T09:39:32;26.60;95.80
44513;DHT22;30219;50.588;9.504;2022-07-23T09:44:50;26.60;95.80
44513;DHT22;30219;50.588;9.504;2022-07-23T09:47:17;26.80;95.00
44513;DHT22;30219;50.588;9.504;2022-07-23T09:52:28;28.30;94.20
44513;DHT22;30219;50.588;9.504;2022-07-23T09:55:01;28.50;92.90
44513;DHT22;30219;50.588;9.504;2022-07-23T09:57:27;28.10;92.70
44513;DHT22;30219;50.588;9.504;2022-07-23T09:59:57;27.80;92.40
44513;DHT22;30219;50.588;9.504;2022-07-23T10:02:24;27.60;93.00
44513;DHT22;30219;50.588;9.504;2022-07-23T10:04:52;27.90;93.00
44513;DHT22;30219;50.588;9.504;2022-07-23T10:07:21;28.60;92.90
44513;DHT22;30219;50.588;9.504;2022-07-23T10:09:48;29.20;91.20
44513;DHT22;30219;50.588;9.504;2022-07-23T10:12:17;29.50;91.10
44513;DHT22;30219;50.588;9.504;2022-07-23T10:14:46;30.30;90.80
44513;DHT22;30219;50.588;9.504;2022-07-23T10:17:12;30.80;89.10
44513;DHT22;30219;50.588;9.504;2022-07-23T10:19:38;30.80;87.40
44513;DHT22;30219;50.588;9.504;2022-07-23T10:22:18;31.40;88.60
44513;DHT22;30219;50.588;9.504;2022-07-23T10:24:52;31.40;85.40
44513;DHT22;30219;50.588;9.504;2022-07-23T10:39:04;29.70;87.00
44513;DHT22;30219;50.588;9.504;2022-07-23T10:41:35;30.50;83.80
44513;DHT22;30219;50.588;9.504;2022-07-23T10:46:35;31.90;81.10
44513;DHT22;30219;50.588;9.504;2022-07-23T10:49:20;31.40;79.00
44513;DHT22;30219;50.588;9.504;2022-07-23T10:54:40;31.90;79.10
44513;DHT22;30219;50.588;9.504;2022-07-23T10:57:08;31.60;78.60
44513;DHT22;30219;50.588;9.504;2022-07-23T11:02:37;31.10;77.90
44513;DHT22;30219;50.588;9.504;2022-07-23T11:05:12;31.30;78.70
44513;DHT22;30219;50.588;9.504;2022-07-23T11:10:40;31.60;79.30
44513;DHT22;30219;50.588;9.504;2022-07-23T11:24:03;32.20;75.30
44513;DHT22;30219;50.588;9.504;2022-07-23T11:32:20;32.10;72.80
44513;DHT22;30219;50.588;9.504;2022-07-23T11:34:48;31.50;72.40
44513;DHT22;30219;50.588;9.504;2022-07-23T11:37:33;31.30;73.30
44513;DHT22;30219;50.588;9.504;2022-07-23T11:40:08;31.50;73.30
44513;DHT22;30219;50.588;9.504;2022-07-23T11:42:36;31.70;72.60
44513;DHT22;30219;50.588;9.504;2022-07-23T11:45:04;31.40;71.80
44513;DHT22;30219;50.588;9.504;2022-07-23T11:47:30;31.90;71.40
44513;DHT22;30219;50.588;9.504;2022-07-23T11:50:00;32.00;71.50
44513;DHT22;30219;50.588;9.504;2022-07-23T11:52:27;32.20;71.30
44513;DHT22;30219;50.588;9.504;2022-07-23T11:54:56;32.70;70.90
44513;DHT22;30219;50.588;9.504;2022-07-23T11:57:30;32.80;70.20
44513;DHT22;30219;50.588;9.504;2022-07-23T12:00:00;32.60;70.10
44513;DHT22;30219;50.588;9.504;2022-07-23T12:02:26;32.30;68.70
44513;DHT22;30219;50.588;9.504;2022-07-23T12:04:52;31.70;70.00
44513;DHT22;30219;50.588;9.504;2022-07-23T12:09:54;32.00;71.00
44513;DHT22;30219;50.588;9.504;2022-07-23T12:12:20;32.20;70.90
44513;DHT22;30219;50.588;9.504;2022-07-23T12:14:56;32.00;70.70
44513;DHT22;30219;50.588;9.504;2022-07-23T12:17:28;31.70;70.30
44513;DHT22;30219;50.588;9.504;2022-07-23T12:19:55;31.20;71.20
44513;DHT22;30219;50.588;9.504;2022-07-23T12:22:23;31.30;72.20
44513;DHT22;30219;50.588;9.504;2022-07-23T12:24:59;31.50;72.30
44513;DHT22;30219;50.588;9.504;2022-07-23T12:27:26;31.90;72.40
44513;DHT22;30219;50.588;9.504;2022-07-23T12:29:52;31.90;70.00
44513;DHT22;30219;50.588;9.504;2022-07-23T12:32:24;31.70;70.90
44513;DHT22;30219;50.588;9.504;2022-07-23T12:35:01;31.90;72.10
44513;DHT22;30219;50.588;9.504;2022-07-23T12:37:29;31.90;70.70
44513;DHT22;30219;50.588;9.504;2022-07-23T12:39:55;31.90;70.30
44513;DHT22;30219;50.588;9.504;2022-07-23T12:42:21;31.70;70.30
44513;DHT22;30219;50.588;9.504;2022-07-23T12:45:09;31.80;71.10
44513;DHT22;30219;50.588;9.504;2022-07-23T12:50:36;31.70;69.80
44513;DHT22;30219;50.588;9.504;2022-07-23T12:53:09;30.70;72.20
44513;DHT22;30219;50.588;9.504;2022-07-23T12:55:35;30.90;72.40
44513;DHT22;30219;50.588;9.504;2022-07-23T12:58:14;31.20;72.60
44513;DHT22;30219;50.588;9.504;2022-07-23T13:03:35;31.60;71.80
44513;DHT22;30219;50.588;9.504;2022-07-23T13:06:03;31.70;71.00
44513;DHT22;30219;50.588;9.504;2022-07-23T13:08:31;31.90;71.20
44513;DHT22;30219;50.588;9.504;2022-07-23T13:10:58;31.90;70.90
44513;DHT22;30219;50.588;9.504;2022-07-23T13:13:26;31.60;71.10
44513;DHT22;30219;50.588;9.504;2022-07-23T13:15:53;31.30;71.10
44513;DHT22;30219;50.588;9.504;2022-07-23T13:18:19;31.20;71.30
44513;DHT22;30219;50.588;9.504;2022-07-23T13:20:46;31.20;71.50
44513;DHT22;30219;50.588;9.504;2022-07-23T13:23:13;31.40;71.80
44513;DHT22;30219;50.588;9.504;2022-07-23T13:25:40;31.60;70.40
44513;DHT22;30219;50.588;9.504;2022-07-23T13:28:06;31.50;70.80
44513;DHT22;30219;50.588;9.504;2022-07-23T13:30:32;31.70;71.20
44513;DHT22;30219;50.588;9.504;2022-07-23T13:32:59;31.90;71.20
44513;DHT22;30219;50.588;9.504;2022-07-23T13:35:25;32.20;70.40
44513;DHT22;30219;50.588;9.504;2022-07-23T13:37:50;32.30;70.30
44513;DHT22;30219;50.588;9.504;2022-07-23T13:40:16;32.30;69.70
44513;DHT22;30219;50.588;9.504;2022-07-23T13:42:42;31.90;69.40
44513;DHT22;30219;50.588;9.504;2022-07-23T13:45:08;31.70;70.00
44513;DHT22;30219;50.588;9.504;2022-07-23T13:47:34;31.50;70.00
44513;DHT22;30219;50.588;9.504;2022-07-23T13:49:59;31.40;70.10
44513;DHT22;30219;50.588;9.504;2022-07-23T13:52:25;31.20;70.50
44513;DHT22;30219;50.588;9.504;2022-07-23T13:54:51;31.30;69.30
44513;DHT22;30219;50.588;9.504;2022-07-23T13:57:17;31.30;69.80
44513;DHT22;30219;50.588;9.504;2022-07-23T13:59:43;31.40;69.60
44513;DHT22;30219;50.588;9.504;2022-07-23T14:02:09;31.70;69.50
44513;DHT22;30219;50.588;9.504;2022-07-23T14:04:35;31.90;68.70
44513;DHT22;30219;50.588;9.504;2022-07-23T14:07:01;32.00;67.80
44513;DHT22;30219;50.588;9.504;2022-07-23T14:09:26;31.50;67.30
44513;DHT22;30219;50.588;9.504;2022-07-23T14:11:52;31.40;67.70
44513;DHT22;30219;50.588;9.504;2022-07-23T14:14:18;31.40;67.60
44513;DHT22;30219;50.588;9.504;2022-07-23T14:16:44;31.30;68.30
44513;DHT22;30219;50.588;9.504;2022-07-23T14:19:10;31.50;68.00
44513;DHT22;30219;50.588;9.504;2022-07-23T14:21:36;31.50;67.40
44513;DHT22;30219;50.588;9.504;2022-07-23T14:24:02;31.30;68.70
44513;DHT22;30219;50.588;9.504;2022-07-23T14:26:28;31.70;68.40
44513;DHT22;30219;50.588;9.504;2022-07-23T14:28:54;31.40;68.10
44513;DHT22;30219;50.588;9.504;2022-07-23T14:31:19;31.30;68.80
44513;DHT22;30219;50.588;9.504;2022-07-23T14:33:45;31.10;68.70
44513;DHT22;30219;50.588;9.504;2022-07-23T14:36:10;31.10;67.90
44513;DHT22;30219;50.588;9.504;2022-07-23T14:38:36;31.10;67.70
44513;DHT22;30219;50.588;9.504;2022-07-23T14:41:02;31.20;68.10
44513;DHT22;30219;50.588;9.504;2022-07-23T14:43:32;31.50;68.40
44513;DHT22;30219;50.588;9.504;2022-07-23T14:45:57;31.80;67.70
44513;DHT22;30219;50.588;9.504;2022-07-23T14:48:23;31.90;67.10
44513;DHT22;30219;50.588;9.504;2022-07-23T14:50:49;31.90;66.90
44513;DHT22;30219;50.588;9.504;2022-07-23T14:53:14;31.80;66.90
44513;DHT22;30219;50.588;9.504;2022-07-23T14:55:40;31.30;67.10
44513;DHT22;30219;50.588;9.504;2022-07-23T14:58:05;31.20;67.70
44513;DHT22;30219;50.588;9.504;2022-07-23T15:00:31;31.20;67.90
44513;DHT22;30219;50.588;9.504;2022-07-23T15:02:56;31.20;67.30
44513;DHT22;30219;50.588;9.504;2022-07-23T15:05:22;31.10;67.40
44513;DHT22;30219;50.588;9.504;2022-07-23T15:07:48;31.00;67.50
44513;DHT22;30219;50.588;9.504;2022-07-23T15:10:14;30.80;68.20
44513;DHT22;30219;50.588;9.504;2022-07-23T15:12:40;30.70;69.00
44513;DHT22;30219;50.588;9.504;2022-07-23T15:15:06;30.70;68.70
44513;DHT22;30219;50.588;9.504;2022-07-23T15:17:32;30.90;68.50
44513;DHT22;30219;50.588;9.504;2022-07-23T15:19:58;31.20;68.00
44513;DHT22;30219;50.588;9.504;2022-07-23T15:22:24;31.40;68.20
44513;DHT22;30219;50.588;9.504;2022-07-23T15:24:49;31.40;68.10
44513;DHT22;30219;50.588;9.504;2022-07-23T15:27:15;31.30;67.70
44513;DHT22;30219;50.588;9.504;2022-07-23T15:29:43;31.20;67.70
44513;DHT22;30219;50.588;9.504;2022-07-23T15:32:09;31.10;67.30
44513;DHT22;30219;50.588;9.504;2022-07-23T15:34:34;30.70;67.90
44513;DHT22;30219;50.588;9.504;2022-07-23T15:37:01;30.60;69.20
44513;DHT22;30219;50.588;9.504;2022-07-23T15:39:27;30.60;68.30
44513;DHT22;30219;50.588;9.504;2022-07-23T15:41:52;30.50;68.80
44513;DHT22;30219;50.588;9.504;2022-07-23T15:44:18;30.60;68.90
44513;DHT22;30219;50.588;9.504;2022-07-23T15:46:44;30.60;68.80
44513;DHT22;30219;50.588;9.504;2022-07-23T15:49:09;30.50;68.60
44513;DHT22;30219;50.588;9.504;2022-07-23T15:51:35;30.40;69.10
44513;DHT22;30219;50.588;9.504;2022-07-23T15:54:00;30.40;68.30
44513;DHT22;30219;50.588;9.504;2022-07-23T15:56:26;30.40;68.10
44513;DHT22;30219;50.588;9.504;2022-07-23T15:58:52;30.50;67.90
44513;DHT22;30219;50.588;9.504;2022-07-23T16:01:17;30.30;67.70
44513;DHT22;30219;50.588;9.504;2022-07-23T16:03:43;30.00;67.70
44513;DHT22;30219;50.588;9.504;2022-07-23T16:06:08;29.70;68.60
44513;DHT22;30219;50.588;9.504;2022-07-23T16:08:34;29.40;69.00
44513;DHT22;30219;50.588;9.504;2022-07-23T16:11:00;29.20;69.20
44513;DHT22;30219;50.588;9.504;2022-07-23T16:13:26;29.00;69.40
44513;DHT22;30219;50.588;9.504;2022-07-23T16:15:52;29.00;69.80
44513;DHT22;30219;50.588;9.504;2022-07-23T16:18:19;29.20;69.90
44513;DHT22;30219;50.588;9.504;2022-07-23T16:20:45;29.30;69.80
44513;DHT22;30219;50.588;9.504;2022-07-23T16:23:10;29.40;69.60
44513;DHT22;30219;50.588;9.504;2022-07-23T16:25:36;29.50;70.00
44513;DHT22;30219;50.588;9.504;2022-07-23T16:28:02;29.60;70.30